Time;durP1;ratioP1;P1;durP2;ratioP2;P2;SDS_P1;SDS_P2;PMS_P1;PMS_P2;Temp;Humidity;BMP_temperature;BMP_pressure;BME280_temperature;BME280_humidity;BME280_pressure;Samples;Min_cycle;Max_cycle;Signal;HPM_P1;HPM_P2
2023/10/15 00:01:27;;;;;;;;;7.67;6.33;;;;;;;;5110268;27;45305;-78
2023/10/15 00:03:52;;;;;;;;;6.67;6.00;;;;;;;;5110783;27;45490;-78
2023/10/15 00:06:17;;;;;;;;;5.00;4.00;;;;;;;;5109761;27;45493;-78
2023/10/15 00:08:42;;;;;;;;;5.00;5.00;;;;;;;;5107008;27;45383;-78
2023/10/15 00:11:14;;;;;;;;;6.00;6.00;;;;;;;;5105119;27;45279;-78
2023/10/15 00:13:39;;;;;;;;;5.33;5.33;;;;;;;;5109708;27;45262;-79
2023/10/15 00:16:05;;;;;;;;;4.00;4.00;;;;;;;;5106464;27;45255;-78
2023/10/15 00:18:30;;;;;;;;;3.00;3.00;;;;;;;;5104752;27;47260;-78
2023/10/15 00:21:01;;;;;;;;;3.67;3.67;;;;;;;;5103516;27;45373;-78
2023/10/15 00:23:28;;;;;;;;;3.67;3.67;;;;;;;;5106667;27;45341;-78
2023/10/15 00:25:54;;;;;;;;;6.67;5.33;;;;;;;;5104256;27;46404;-78
2023/10/15 00:28:19;;;;;;;;;2.00;2.00;;;;;;;;5111745;27;45336;-78
2023/10/15 00:30:44;;;;;;;;;4.00;3.00;;;;;;;;5089937;28;45596;-78
2023/10/15 00:33:11;;;;;;;;;3.00;3.00;;;;;;;;5087444;28;45322;-78
2023/10/15 00:35:36;;;;;;;;;7.00;5.67;;;;;;;;5071493;28;45295;-78
2023/10/15 00:38:11;;;;;;;;;4.67;4.67;;;;;;;;5065775;28;45908;-79
2023/10/15 00:40:41;;;;;;;;;6.00;5.00;;;;;;;;5067150;28;45386;-78
2023/10/15 00:43:06;;;;;;;;;3.67;3.67;;;;;;;;5068235;28;45287;-78
2023/10/15 00:45:35;;;;;;;;;5.00;5.00;;;;;;;;5072838;28;45246;-78
2023/10/15 00:48:07;;;;;;;;;5.67;5.00;;;;;;;;5072553;28;47111;-78
2023/10/15 00:50:40;;;;;;;;;5.00;4.00;;;;;;;;5077950;28;45258;-78
2023/10/15 00:53:22;;;;;;;;;4.33;4.33;;;;;;;;5096209;27;45341;-78
2023/10/15 00:55:49;;;;;;;;;3.33;3.33;;;;;;;;5082436;27;46504;-78
2023/10/15 00:58:21;;;;;;;;;4.33;4.33;;;;;;;;5096766;28;45300;-78
2023/10/15 01:00:53;;;;;;;;;5.67;5.00;;;;;;;;5097510;28;45239;-78
2023/10/15 01:03:33;;;;;;;;;4.67;4.67;;;;;;;;5091798;28;45318;-78
2023/10/15 01:06:00;;;;;;;;;4.00;3.33;;;;;;;;5096161;28;45313;-78
2023/10/15 01:08:34;;;;;;;;;3.00;3.00;;;;;;;;5093717;28;48001;-79
2023/10/15 01:11:08;;;;;;;;;4.33;3.00;;;;;;;;5089428;28;45276;-78
2023/10/15 01:13:34;;;;;;;;;3.00;3.00;;;;;;;;5089286;28;45304;-79
2023/10/15 01:16:03;;;;;;;;;2.67;2.00;;;;;;;;5089688;28;45310;-78
2023/10/15 01:18:28;;;;;;;;;4.00;4.00;;;;;;;;5090909;28;46922;-79
2023/10/15 01:20:53;;;;;;;;;2.00;2.00;;;;;;;;5088896;28;45373;-79
2023/10/15 01:26:13;;;;;;;;;3.33;3.33;;;;;;;;5091930;28;45156;-78
2023/10/15 01:28:39;;;;;;;;;3.67;2.00;;;;;;;;5091667;27;45999;-78
2023/10/15 01:31:07;;;;;;;;;2.00;2.00;;;;;;;;5112225;27;45392;-78
2023/10/15 01:33:45;;;;;;;;;4.67;3.00;;;;;;;;5114095;27;45260;-78
2023/10/15 01:36:15;;;;;;;;;3.33;2.00;;;;;;;;5113608;27;45167;-78
2023/10/15 01:38:43;;;;;;;;;2.00;2.00;;;;;;;;5109213;27;46067;-79
2023/10/15 01:41:13;;;;;;;;;2.00;2.00;;;;;;;;5111565;27;45847;-78
2023/10/15 01:43:38;;;;;;;;;2.67;2.67;;;;;;;;5111808;27;45351;-78
2023/10/15 01:46:10;;;;;;;;;3.00;3.00;;;;;;;;5115036;27;45341;-78
2023/10/15 01:48:39;;;;;;;;;2.00;2.00;;;;;;;;5110755;27;45570;-78
2023/10/15 01:51:04;;;;;;;;;3.00;2.00;;;;;;;;5116969;27;45372;-78
2023/10/15 01:53:34;;;;;;;;;5.33;4.00;;;;;;;;5116019;27;45246;-78
2023/10/15 01:55:59;;;;;;;;;1.67;1.67;;;;;;;;5108950;27;46088;-78
2023/10/15 01:58:30;;;;;;;;;3.00;2.33;;;;;;;;5115725;27;45267;-78
2023/10/15 02:00:55;;;;;;;;;2.67;2.67;;;;;;;;5111284;27;45332;-78
2023/10/15 02:03:21;;;;;;;;;4.00;3.00;;;;;;;;5113187;27;45293;-79
2023/10/15 02:05:46;;;;;;;;;3.00;3.00;;;;;;;;5111482;27;45657;-78
2023/10/15 02:08:13;;;;;;;;;5.00;5.00;;;;;;;;5115335;27;46168;-78
2023/10/15 02:10:39;;;;;;;;;3.67;3.00;;;;;;;;5114461;27;45303;-78
2023/10/15 02:13:05;;;;;;;;;3.33;3.00;;;;;;;;5113943;27;45281;-78
2023/10/15 02:15:41;;;;;;;;;3.33;2.00;;;;;;;;5113705;27;45750;-79
2023/10/15 02:18:08;;;;;;;;;2.67;2.67;;;;;;;;5116972;27;46233;-78
2023/10/15 02:23:18;;;;;;;;;3.00;3.00;;;;;;;;5110521;27;45366;-78
2023/10/15 02:25:47;;;;;;;;;4.67;4.00;;;;;;;;5115881;27;45297;-78
2023/10/15 02:28:25;;;;;;;;;2.00;2.00;;;;;;;;5114579;27;45331;-78
2023/10/15 02:30:58;;;;;;;;;2.00;2.00;;;;;;;;5073454;28;45916;-78
2023/10/15 02:33:25;;;;;;;;;2.00;2.00;;;;;;;;5067113;28;45481;-78
2023/10/15 02:35:54;;;;;;;;;3.33;3.33;;;;;;;;5074821;28;45346;-78
2023/10/15 02:38:19;;;;;;;;;3.00;3.00;;;;;;;;5081203;28;47291;-79
2023/10/15 02:41:03;;;;;;;;;3.00;3.00;;;;;;;;5094535;28;45266;-78
2023/10/15 02:43:29;;;;;;;;;3.00;3.00;;;;;;;;5094106;28;45423;-78
2023/10/15 02:45:56;;;;;;;;;2.00;1.67;;;;;;;;5093728;28;45313;-78
2023/10/15 02:48:25;;;;;;;;;4.00;4.00;;;;;;;;5086901;28;47482;-78
2023/10/15 02:51:08;;;;;;;;;3.00;3.00;;;;;;;;5093493;27;45204;-78
2023/10/15 02:53:35;;;;;;;;;3.67;3.00;;;;;;;;5092270;28;45248;-78
2023/10/15 02:56:10;;;;;;;;;4.00;3.00;;;;;;;;5088555;27;45358;-78
2023/10/15 02:58:35;;;;;;;;;4.00;4.00;;;;;;;;5086676;28;47299;-78
2023/10/15 03:01:06;;;;;;;;;3.00;3.00;;;;;;;;5093443;27;45212;-78
2023/10/15 03:03:35;;;;;;;;;5.00;5.00;;;;;;;;5093740;27;45300;-78
2023/10/15 03:06:00;;;;;;;;;3.67;3.67;;;;;;;;5085399;28;46371;-78
2023/10/15 03:08:31;;;;;;;;;4.67;4.67;;;;;;;;5085541;28;48168;-77
2023/10/15 03:11:01;;;;;;;;;3.00;3.00;;;;;;;;5086397;27;45424;-78
2023/10/15 03:13:26;;;;;;;;;3.33;3.33;;;;;;;;5093436;27;45304;-78
2023/10/15 03:15:52;;;;;;;;;4.00;4.00;;;;;;;;5093972;27;45503;-78
2023/10/15 03:18:28;;;;;;;;;4.33;4.33;;;;;;;;5091144;27;45242;-78
2023/10/15 03:23:58;;;;;;;;;3.67;3.67;;;;;;;;5046240;28;45275;-78
2023/10/15 03:26:34;;;;;;;;;6.00;4.33;;;;;;;;5045396;28;45468;-78
2023/10/15 03:29:00;;;;;;;;;3.33;3.33;;;;;;;;5056348;28;47310;-78
2023/10/15 03:31:27;;;;;;;;;4.00;4.00;;;;;;;;5088043;28;45307;-79
2023/10/15 03:34:28;;;;;;;;;6.33;4.67;;;;;;;;5095407;28;45409;-78
2023/10/15 03:39:16;;;;;;;;;4.00;4.00;;;;;;;;5089262;28;45357;-79
2023/10/15 03:41:49;;;;;;;;;6.33;5.00;;;;;;;;5086203;28;45598;-78
2023/10/15 03:44:23;;;;;;;;;4.00;4.00;;;;;;;;5083298;28;45375;-78
2023/10/15 03:46:48;;;;;;;;;3.00;3.00;;;;;;;;5088386;28;46906;-78
2023/10/15 03:49:13;;;;;;;;;3.00;3.00;;;;;;;;5093472;28;45357;-78
2023/10/15 03:51:41;;;;;;;;;6.00;4.00;;;;;;;;5087865;28;45375;-78
2023/10/15 03:54:06;;;;;;;;;3.00;3.00;;;;;;;;5090299;28;45260;-78
2023/10/15 03:56:34;;;;;;;;;5.33;5.33;;;;;;;;5091700;28;46184;-78
2023/10/15 03:58:59;;;;;;;;;6.67;5.00;;;;;;;;5088289;28;47273;-78
2023/10/15 04:01:27;;;;;;;;;5.67;5.67;;;;;;;;5092348;28;45220;-78
2023/10/15 04:03:52;;;;;;;;;5.00;5.00;;;;;;;;5092487;28;45321;-78
2023/10/15 04:06:19;;;;;;;;;5.00;5.00;;;;;;;;5090056;28;46129;-79
2023/10/15 04:09:33;;;;;;;;;5.00;5.00;;;;;;;;5088855;28;45259;-79
2023/10/15 04:11:42;;;;;;;;;3.00;3.00;;;;;;;;5078251;28;45507;-79
2023/10/15 04:16:51;;;;;;;;;4.67;3.67;;;;;;;;5089961;28;45403;-78
2023/10/15 04:19:20;;;;;;;;;4.33;4.33;;;;;;;;5092636;28;45471;-78
2023/10/15 04:21:46;;;;;;;;;5.67;5.67;;;;;;;;5085287;28;45369;-78
2023/10/15 04:24:17;;;;;;;;;7.00;5.00;;;;;;;;5091276;28;45302;-78
2023/10/15 04:26:48;;;;;;;;;7.00;7.00;;;;;;;;5084706;28;45174;-77
2023/10/15 04:29:16;;;;;;;;;3.00;3.00;;;;;;;;5090151;27;45470;-78
2023/10/15 04:31:45;;;;;;;;;5.00;5.00;;;;;;;;5105138;27;45350;-78
2023/10/15 04:34:17;;;;;;;;;2.67;2.67;;;;;;;;5109332;27;45305;-79
2023/10/15 04:36:43;;;;;;;;;3.00;3.00;;;;;;;;5108817;27;45171;-78
2023/10/15 04:39:11;;;;;;;;;4.33;4.33;;;;;;;;5104231;27;48055;-79
2023/10/15 04:41:37;;;;;;;;;3.33;2.67;;;;;;;;5108981;27;45317;-78
2023/10/15 04:44:03;;;;;;;;;5.67;4.67;;;;;;;;5110345;27;45338;-78
2023/10/15 04:46:30;;;;;;;;;3.00;3.00;;;;;;;;5107335;27;45473;-79
2023/10/15 04:48:55;;;;;;;;;5.00;5.00;;;;;;;;5108303;27;47530;-79
2023/10/15 04:51:29;;;;;;;;;5.00;5.00;;;;;;;;5108686;27;45326;-78
2023/10/15 04:53:55;;;;;;;;;3.67;3.00;;;;;;;;5105764;27;45234;-79
2023/10/15 04:56:21;;;;;;;;;5.00;5.00;;;;;;;;5110048;27;46944;-79
2023/10/15 04:58:46;;;;;;;;;6.00;4.00;;;;;;;;5105983;27;47539;-79
2023/10/15 05:01:11;;;;;;;;;4.00;4.00;;;;;;;;5109469;27;45715;-78
2023/10/15 05:03:38;;;;;;;;;4.00;4.00;;;;;;;;5104209;27;45325;-78
2023/10/15 05:06:04;;;;;;;;;4.00;2.33;;;;;;;;5103975;27;45519;-79
2023/10/15 05:08:30;;;;;;;;;12.33;9.00;;;;;;;;5105266;27;45353;-78
2023/10/15 05:10:55;;;;;;;;;8.00;6.67;;;;;;;;5110035;27;45307;-78
2023/10/15 05:13:20;;;;;;;;;8.67;8.33;;;;;;;;5111895;27;45295;-78
2023/10/15 05:15:46;;;;;;;;;5.00;5.00;;;;;;;;5087100;27;45624;-78
2023/10/15 05:18:11;;;;;;;;;4.67;4.67;;;;;;;;5091697;28;45969;-78
2023/10/15 05:20:36;;;;;;;;;5.33;5.00;;;;;;;;5091308;28;45408;-78
2023/10/15 05:23:02;;;;;;;;;4.33;4.33;;;;;;;;5084553;27;45795;-78
2023/10/15 05:25:27;;;;;;;;;5.00;5.00;;;;;;;;5085901;28;45342;-79
2023/10/15 05:27:53;;;;;;;;;5.00;5.00;;;;;;;;5088238;28;46606;-78
2023/10/15 05:30:18;;;;;;;;;5.67;5.67;;;;;;;;5102448;27;45477;-78
2023/10/15 05:32:44;;;;;;;;;5.00;5.00;;;;;;;;5110778;27;45232;-78
2023/10/15 05:35:09;;;;;;;;;4.33;4.33;;;;;;;;5115138;27;45183;-78
2023/10/15 05:37:36;;;;;;;;;6.00;5.00;;;;;;;;5114012;27;45329;-78
2023/10/15 05:40:02;;;;;;;;;4.67;4.67;;;;;;;;5114279;27;45217;-78
2023/10/15 05:42:28;;;;;;;;;6.67;6.67;;;;;;;;5115094;27;45191;-78
2023/10/15 05:44:53;;;;;;;;;5.00;5.00;;;;;;;;5110406;27;45394;-78
2023/10/15 05:47:19;;;;;;;;;7.00;7.00;;;;;;;;5107333;27;46019;-79
2023/10/15 05:49:44;;;;;;;;;7.00;7.00;;;;;;;;5107531;27;44748;-78
2023/10/15 05:52:10;;;;;;;;;5.67;5.67;;;;;;;;5115196;27;45398;-78
2023/10/15 05:54:35;;;;;;;;;3.33;3.33;;;;;;;;5120478;27;45267;-78
2023/10/15 05:57:02;;;;;;;;;6.67;6.67;;;;;;;;5105299;27;47074;-78
2023/10/15 05:59:27;;;;;;;;;6.67;5.33;;;;;;;;5109749;27;45303;-78
2023/10/15 06:01:52;;;;;;;;;5.67;5.67;;;;;;;;5108034;27;45360;-79
2023/10/15 06:04:17;;;;;;;;;6.67;5.00;;;;;;;;5111829;27;45390;-78
2023/10/15 06:06:43;;;;;;;;;6.00;4.67;;;;;;;;5086163;27;46647;-78
2023/10/15 06:09:11;;;;;;;;;6.00;6.00;;;;;;;;5074565;28;45343;-79
2023/10/15 06:11:36;;;;;;;;;4.33;4.00;;;;;;;;5077013;28;45452;-79
2023/10/15 06:14:04;;;;;;;;;6.33;5.00;;;;;;;;5081682;28;47156;-78
2023/10/15 06:16:29;;;;;;;;;4.67;4.67;;;;;;;;5082365;28;45256;-77
2023/10/15 06:18:54;;;;;;;;;5.00;5.00;;;;;;;;5088005;28;45282;-79
2023/10/15 06:21:19;;;;;;;;;4.00;4.00;;;;;;;;5088262;28;45232;-80
2023/10/15 06:23:45;;;;;;;;;4.00;4.00;;;;;;;;5086887;28;46231;-79
2023/10/15 06:26:10;;;;;;;;;6.00;6.00;;;;;;;;5084986;28;47183;-80
2023/10/15 06:28:35;;;;;;;;;7.33;5.33;;;;;;;;5086193;27;45331;-78
2023/10/15 06:31:01;;;;;;;;;5.00;4.33;;;;;;;;5106476;27;45278;-78
2023/10/15 06:33:26;;;;;;;;;9.00;8.00;;;;;;;;5094412;27;45461;-79
2023/10/15 06:35:51;;;;;;;;;7.00;7.00;;;;;;;;5082241;27;45349;-80
2023/10/15 06:38:17;;;;;;;;;10.00;9.00;;;;;;;;5081946;27;45307;-82
2023/10/15 06:40:43;;;;;;;;;6.00;6.00;;;;;;;;5082328;27;45363;-81
2023/10/15 06:43:08;;;;;;;;;5.00;5.00;;;;;;;;5081112;27;45276;-79
2023/10/15 06:45:34;;;;;;;;;5.00;5.00;;;;;;;;5082313;27;45252;-80
2023/10/15 06:48:00;;;;;;;;;5.00;5.00;;;;;;;;5080691;28;45927;-80
2023/10/15 06:50:25;;;;;;;;;6.00;6.00;;;;;;;;5084046;27;45270;-79
2023/10/15 06:52:51;;;;;;;;;7.00;7.00;;;;;;;;5080253;28;46048;-78
2023/10/15 06:55:19;;;;;;;;;6.33;6.33;;;;;;;;5080413;28;47072;-78
2023/10/15 06:57:45;;;;;;;;;9.00;9.00;;;;;;;;5082843;27;45235;-79
2023/10/15 07:00:12;;;;;;;;;10.33;10.33;;;;;;;;5084916;27;45284;-78
2023/10/15 07:02:37;;;;;;;;;16.33;11.33;;;;;;;;5086107;28;45369;-78
2023/10/15 07:05:04;;;;;;;;;15.33;12.67;;;;;;;;5088498;28;48229;-76
2023/10/15 07:07:29;;;;;;;;;19.00;18.00;;;;;;;;5091153;28;45345;-78
2023/10/15 07:09:54;;;;;;;;;14.00;14.00;;;;;;;;5074795;28;45366;-79
2023/10/15 07:12:20;;;;;;;;;13.33;12.67;;;;;;;;5069346;28;46043;-79
2023/10/15 07:14:46;;;;;;;;;11.67;11.00;;;;;;;;5077883;27;45318;-78
2023/10/15 07:17:11;;;;;;;;;8.33;8.33;;;;;;;;5081003;28;45279;-80
2023/10/15 07:19:36;;;;;;;;;8.33;8.33;;;;;;;;5080867;27;45584;-79
2023/10/15 07:22:01;;;;;;;;;8.00;8.00;;;;;;;;5078811;28;45840;-80
2023/10/15 07:24:27;;;;;;;;;7.67;7.67;;;;;;;;5094340;27;45613;-79
2023/10/15 07:26:52;;;;;;;;;8.33;7.67;;;;;;;;5093273;27;45347;-79
2023/10/15 07:29:18;;;;;;;;;10.50;8.50;;;;;;;;5077869;27;45241;-81
2023/10/15 07:31:44;;;;;;;;;9.00;9.00;;;;;;;;5078449;28;45386;-80
2023/10/15 07:34:09;;;;;;;;;7.33;7.00;;;;;;;;5073441;27;46579;-79
2023/10/15 07:36:35;;;;;;;;;8.67;7.67;;;;;;;;5070516;28;45494;-80
2023/10/15 07:39:00;;;;;;;;;7.67;7.67;;;;;;;;5068942;27;45349;-80
2023/10/15 07:41:28;;;;;;;;;8.33;8.00;;;;;;;;5067960;28;45327;-81
2023/10/15 07:43:53;;;;;;;;;8.00;5.33;;;;;;;;5069325;27;46286;-79
2023/10/15 07:46:24;;;;;;;;;7.33;7.00;;;;;;;;5069539;28;45339;-79
2023/10/15 07:48:51;;;;;;;;;5.67;5.67;;;;;;;;5074940;28;45299;-80
2023/10/15 07:51:16;;;;;;;;;7.00;7.00;;;;;;;;5071392;28;45587;-78
2023/10/15 07:53:41;;;;;;;;;6.00;6.00;;;;;;;;5069783;28;46079;-79
2023/10/15 07:56:07;;;;;;;;;8.33;7.00;;;;;;;;5069361;28;45283;-77
2023/10/15 07:58:32;;;;;;;;;4.67;4.67;;;;;;;;5075761;28;45897;-78
2023/10/15 08:01:01;;;;;;;;;6.00;6.00;;;;;;;;5075685;28;45513;-81
2023/10/15 08:03:29;;;;;;;;;6.00;5.33;;;;;;;;5078955;28;47115;-78
2023/10/15 08:05:54;;;;;;;;;5.00;5.00;;;;;;;;5077586;28;45516;-78
2023/10/15 08:08:19;;;;;;;;;5.00;5.00;;;;;;;;5075651;28;45397;-83
2023/10/15 08:10:44;;;;;;;;;4.00;4.00;;;;;;;;5078160;28;45461;-81
2023/10/15 08:13:10;;;;;;;;;5.00;5.00;;;;;;;;5088132;28;47939;-80
2023/10/15 08:15:36;;;;;;;;;5.67;5.67;;;;;;;;5089528;28;45576;-79
2023/10/15 08:18:01;;;;;;;;;6.00;5.00;;;;;;;;5088674;28;45418;-80
2023/10/15 08:20:27;;;;;;;;;4.33;4.00;;;;;;;;5084982;27;45378;-79
2023/10/15 08:22:53;;;;;;;;;5.33;3.00;;;;;;;;5085686;28;47957;-79
2023/10/15 08:25:22;;;;;;;;;6.00;4.00;;;;;;;;5086443;28;45355;-79
2023/10/15 08:27:47;;;;;;;;;5.33;5.33;;;;;;;;5086528;28;45393;-81
2023/10/15 08:30:13;;;;;;;;;4.00;4.00;;;;;;;;5097680;27;45446;-78
2023/10/15 08:32:39;;;;;;;;;4.00;4.00;;;;;;;;5101276;27;48489;-79
2023/10/15 08:35:05;;;;;;;;;3.67;3.67;;;;;;;;5105174;27;45341;-81
2023/10/15 08:37:30;;;;;;;;;4.00;4.00;;;;;;;;5108951;27;45417;-79
2023/10/15 08:39:55;;;;;;;;;1.33;1.33;;;;;;;;5101479;27;46293;-79
2023/10/15 08:42:25;;;;;;;;;2.00;2.00;;;;;;;;5105376;27;48149;-80
2023/10/15 08:44:52;;;;;;;;;2.00;2.00;;;;;;;;5109011;27;45698;-81
2023/10/15 08:47:39;;;;;;;;;3.00;3.00;;;;;;;;5111699;27;45235;-82
2023/10/15 08:50:06;;;;;;;;;2.00;1.67;;;;;;;;5114266;27;46423;-82
2023/10/15 08:52:31;;;;;;;;;5.00;4.00;;;;;;;;5107554;27;46336;-81
2023/10/15 08:54:59;;;;;;;;;3.00;3.00;;;;;;;;5095072;27;45564;-80
2023/10/15 08:57:25;;;;;;;;;4.67;4.67;;;;;;;;5076406;28;45671;-81
2023/10/15 08:59:51;;;;;;;;;4.33;4.33;;;;;;;;5079527;28;45355;-79
2023/10/15 09:02:18;;;;;;;;;4.33;4.33;;;;;;;;5072983;28;48354;-80
2023/10/15 09:04:45;;;;;;;;;8.00;6.00;;;;;;;;5074135;28;45357;-79
2023/10/15 09:07:10;;;;;;;;;6.00;5.33;;;;;;;;5082534;28;45418;-81
2023/10/15 09:09:35;;;;;;;;;6.67;5.33;;;;;;;;5085410;28;45421;-81
2023/10/15 09:12:01;;;;;;;;;5.67;5.67;;;;;;;;5084701;28;45370;-79
2023/10/15 09:14:45;;;;;;;;;6.33;6.33;;;;;;;;5089316;28;45465;-79
2023/10/15 09:17:12;;;;;;;;;2.00;2.00;;;;;;;;5071346;28;45378;-79
2023/10/15 09:19:37;;;;;;;;;6.67;5.33;;;;;;;;5077396;28;45551;-81
2023/10/15 09:22:04;;;;;;;;;3.67;2.67;;;;;;;;5090465;28;45231;-80
2023/10/15 09:24:29;;;;;;;;;4.00;3.00;;;;;;;;5084459;28;45400;-82
2023/10/15 09:26:57;;;;;;;;;2.00;2.00;;;;;;;;5083071;28;45284;-79
2023/10/15 09:29:22;;;;;;;;;1.33;1.33;;;;;;;;5085077;27;46209;-79
2023/10/15 09:31:49;;;;;;;;;2.00;2.00;;;;;;;;5088920;28;45448;-80
2023/10/15 09:34:14;;;;;;;;;4.33;2.00;;;;;;;;5097131;28;45443;-80
2023/10/15 09:36:39;;;;;;;;;6.00;6.00;;;;;;;;5076560;28;45307;-80
2023/10/15 09:39:12;;;;;;;;;4.00;4.00;;;;;;;;5079103;28;46731;-81
2023/10/15 09:41:37;;;;;;;;;7.00;6.00;;;;;;;;5080820;28;45272;-79
2023/10/15 09:44:06;;;;;;;;;6.67;5.67;;;;;;;;5067310;28;45580;-79
2023/10/15 09:46:32;;;;;;;;;32.67;31.33;;;;;;;;5063282;28;45332;-79
2023/10/15 09:48:57;;;;;;;;;2.00;1.00;;;;;;;;5069152;28;45590;-79
2023/10/15 09:51:23;;;;;;;;;1.00;1.00;;;;;;;;5076866;28;45508;-79
2023/10/15 09:53:50;;;;;;;;;0.33;0.33;;;;;;;;5075262;28;45508;-78
2023/10/15 09:56:15;;;;;;;;;0.00;0.00;;;;;;;;5077296;28;45443;-76
2023/10/15 09:58:40;;;;;;;;;1.67;0.00;;;;;;;;5073052;28;45723;-77
2023/10/15 10:01:09;;;;;;;;;0.00;0.00;;;;;;;;5076013;28;45322;-76
2023/10/15 10:03:49;;;;;;;;;1.00;1.00;;;;;;;;5084279;28;45433;-76
2023/10/15 10:06:33;;;;;;;;;0.00;0.00;;;;;;;;5082297;28;45314;-76
2023/10/15 10:09:10;;;;;;;;;0.33;0.33;;;;;;;;5079834;28;45977;-76
2023/10/15 10:11:38;;;;;;;;;1.00;1.00;;;;;;;;5081566;28;47627;-76
2023/10/15 10:14:07;;;;;;;;;0.00;0.00;;;;;;;;5083733;28;45531;-78
2023/10/15 10:16:32;;;;;;;;;0.00;0.00;;;;;;;;5077350;28;45385;-76
2023/10/15 10:18:58;;;;;;;;;0.00;0.00;;;;;;;;5070219;28;46471;-78
2023/10/15 10:21:28;;;;;;;;;0.00;0.00;;;;;;;;5061398;28;45362;-77
2023/10/15 10:23:53;;;;;;;;;0.00;0.00;;;;;;;;5065852;28;45204;-79
2023/10/15 10:26:19;;;;;;;;;0.33;0.00;;;;;;;;5078938;28;45253;-77
2023/10/15 10:28:45;;;;;;;;;0.00;0.00;;;;;;;;5087078;27;45449;-78
2023/10/15 10:31:11;;;;;;;;;0.33;0.00;;;;;;;;5102963;27;47593;-77
2023/10/15 10:33:43;;;;;;;;;0.00;0.00;;;;;;;;5105251;27;45380;-77
2023/10/15 10:36:14;;;;;;;;;0.33;0.33;;;;;;;;5092986;27;45339;-76
2023/10/15 10:38:40;;;;;;;;;0.00;0.00;;;;;;;;5067536;28;45504;-77
2023/10/15 10:41:12;;;;;;;;;0.00;0.00;;;;;;;;5062327;28;48278;-77
2023/10/15 10:43:40;;;;;;;;;0.00;0.00;;;;;;;;5068191;28;45311;-77
2023/10/15 10:46:06;;;;;;;;;0.00;0.00;;;;;;;;5066667;28;45336;-77
2023/10/15 10:48:38;;;;;;;;;0.00;0.00;;;;;;;;5062476;28;45214;-77
2023/10/15 10:51:15;;;;;;;;;0.00;0.00;;;;;;;;5062797;28;46325;-76
2023/10/15 10:53:55;;;;;;;;;0.00;0.00;;;;;;;;5071258;28;45224;-77
2023/10/15 10:56:22;;;;;;;;;0.00;0.00;;;;;;;;5081066;28;45476;-77
2023/10/15 10:58:48;;;;;;;;;0.00;0.00;;;;;;;;5081562;28;45307;-76
2023/10/15 11:01:13;;;;;;;;;0.00;0.00;;;;;;;;5081546;28;46194;-77
2023/10/15 11:03:40;;;;;;;;;0.00;0.00;;;;;;;;5079566;28;45304;-76
2023/10/15 11:06:07;;;;;;;;;0.00;0.00;;;;;;;;5080193;28;45292;-75
2023/10/15 11:08:32;;;;;;;;;0.00;0.00;;;;;;;;5085093;28;45508;-77
2023/10/15 11:10:59;;;;;;;;;0.00;0.00;;;;;;;;5083101;28;45398;-78
2023/10/15 11:13:24;;;;;;;;;0.00;0.00;;;;;;;;5083087;28;45386;-79
2023/10/15 11:15:50;;;;;;;;;0.33;0.00;;;;;;;;5086435;28;45244;-78
2023/10/15 11:18:22;;;;;;;;;0.00;0.00;;;;;;;;5060543;28;46251;-77
2023/10/15 11:20:47;;;;;;;;;0.00;0.00;;;;;;;;5079293;28;46414;-78
2023/10/15 11:23:13;;;;;;;;;0.00;0.00;;;;;;;;5078294;28;45229;-80
2023/10/15 11:25:38;;;;;;;;;0.00;0.00;;;;;;;;5080379;28;45263;-78
2023/10/15 11:28:04;;;;;;;;;0.00;0.00;;;;;;;;5070862;28;46122;-80
2023/10/15 11:30:30;;;;;;;;;0.00;0.00;;;;;;;;5070716;27;47672;-78
2023/10/15 11:32:55;;;;;;;;;0.00;0.00;;;;;;;;5070411;28;45350;-78
2023/10/15 11:35:21;;;;;;;;;0.00;0.00;;;;;;;;5070962;28;45382;-78
2023/10/15 11:37:50;;;;;;;;;0.00;0.00;;;;;;;;5065919;28;45484;-77
2023/10/15 11:40:17;;;;;;;;;0.00;0.00;;;;;;;;5071635;28;45279;-76
2023/10/15 11:42:45;;;;;;;;;0.00;0.00;;;;;;;;5068491;28;45168;-76
2023/10/15 11:45:17;;;;;;;;;0.00;0.00;;;;;;;;5068405;28;45429;-78
2023/10/15 11:47:44;;;;;;;;;1.00;0.00;;;;;;;;5083329;28;46305;-79
2023/10/15 11:50:12;;;;;;;;;0.00;0.00;;;;;;;;5079871;28;45236;-79
2023/10/15 11:52:44;;;;;;;;;1.00;0.00;;;;;;;;5068578;28;45706;-80
2023/10/15 11:55:16;;;;;;;;;0.00;0.00;;;;;;;;5068243;28;45445;-79
2023/10/15 11:57:42;;;;;;;;;0.00;0.00;;;;;;;;5073208;28;45443;-77
2023/10/15 12:00:09;;;;;;;;;0.00;0.00;;;;;;;;5067016;28;48499;-78
2023/10/15 12:02:34;;;;;;;;;0.00;0.00;;;;;;;;5065292;28;45417;-78
2023/10/15 12:05:01;;;;;;;;;0.00;0.00;;;;;;;;5076985;28;45453;-79
2023/10/15 12:07:28;;;;;;;;;0.00;0.00;;;;;;;;5080814;28;46336;-80
2023/10/15 12:09:53;;;;;;;;;1.00;1.00;;;;;;;;5079126;28;46335;-80
2023/10/15 12:12:18;;;;;;;;;2.00;0.00;;;;;;;;5079821;28;45300;-81
2023/10/15 12:14:43;;;;;;;;;0.00;0.00;;;;;;;;5080118;28;45279;-80
2023/10/15 12:17:12;;;;;;;;;1.00;1.00;;;;;;;;5084056;28;45229;-81
2023/10/15 12:19:37;;;;;;;;;1.33;1.33;;;;;;;;5086468;28;45349;-81
2023/10/15 12:22:03;;;;;;;;;1.00;0.00;;;;;;;;5081239;28;45385;-81
2023/10/15 12:24:28;;;;;;;;;0.67;0.00;;;;;;;;5080128;28;45190;-79
2023/10/15 12:26:53;;;;;;;;;0.00;0.00;;;;;;;;5079417;28;46086;-79
2023/10/15 12:29:28;;;;;;;;;0.00;0.00;;;;;;;;5092631;27;45415;-79
2023/10/15 12:31:53;;;;;;;;;1.00;0.00;;;;;;;;5106863;27;45264;-78
2023/10/15 12:34:20;;;;;;;;;0.00;0.00;;;;;;;;5110494;27;45231;-79
2023/10/15 12:36:45;;;;;;;;;1.00;1.00;;;;;;;;5106038;27;46873;-79
2023/10/15 12:39:10;;;;;;;;;0.00;0.00;;;;;;;;5107006;27;46412;-78
2023/10/15 12:41:38;;;;;;;;;0.00;0.00;;;;;;;;5108042;27;45224;-78
2023/10/15 12:44:09;;;;;;;;;0.00;0.00;;;;;;;;5114282;27;45221;-78
2023/10/15 12:46:35;;;;;;;;;3.67;2.00;;;;;;;;5108629;27;46486;-78
2023/10/15 12:49:02;;;;;;;;;0.00;0.00;;;;;;;;5107407;27;48447;-78
2023/10/15 12:51:27;;;;;;;;;0.00;0.00;;;;;;;;5111392;27;45380;-78
2023/10/15 12:53:52;;;;;;;;;0.00;0.00;;;;;;;;5107279;27;45384;-79
2023/10/15 12:56:17;;;;;;;;;1.00;0.00;;;;;;;;5108234;27;45544;-78
2023/10/15 12:58:43;;;;;;;;;0.00;0.00;;;;;;;;5113545;27;45400;-79
2023/10/15 13:01:09;;;;;;;;;0.00;0.00;;;;;;;;5097917;27;45141;-79
2023/10/15 13:03:34;;;;;;;;;0.00;0.00;;;;;;;;5094191;28;45880;-79
2023/10/15 13:05:59;;;;;;;;;0.00;0.00;;;;;;;;5090508;28;45271;-78
2023/10/15 13:08:25;;;;;;;;;0.00;0.00;;;;;;;;5088264;28;46989;-77
2023/10/15 13:10:51;;;;;;;;;0.00;0.00;;;;;;;;5093720;28;45362;-78
2023/10/15 13:13:16;;;;;;;;;1.00;1.00;;;;;;;;5086728;28;45307;-78
2023/10/15 13:15:41;;;;;;;;;4.00;4.00;;;;;;;;5088358;28;46896;-78
2023/10/15 13:18:06;;;;;;;;;0.00;0.00;;;;;;;;5091943;28;45288;-78
2023/10/15 13:20:32;;;;;;;;;0.00;0.00;;;;;;;;5100190;27;45229;-79
2023/10/15 13:22:57;;;;;;;;;0.00;0.00;;;;;;;;5102482;28;45407;-77
2023/10/15 13:25:22;;;;;;;;;0.00;0.00;;;;;;;;5090277;28;45222;-78
2023/10/15 13:27:47;;;;;;;;;0.00;0.00;;;;;;;;5089587;28;47159;-77
2023/10/15 13:30:13;;;;;;;;;0.00;0.00;;;;;;;;5095874;28;45193;-78
2023/10/15 13:32:41;;;;;;;;;0.00;0.00;;;;;;;;5089002;28;45419;-79
2023/10/15 13:35:07;;;;;;;;;0.00;0.00;;;;;;;;5093586;28;46105;-78
2023/10/15 13:37:32;;;;;;;;;0.00;0.00;;;;;;;;5096626;28;45295;-78
2023/10/15 13:39:57;;;;;;;;;0.00;0.00;;;;;;;;5086300;28;45239;-79
2023/10/15 13:42:23;;;;;;;;;0.00;0.00;;;;;;;;5084351;28;45553;-77
2023/10/15 13:44:49;;;;;;;;;0.00;0.00;;;;;;;;5089307;28;45448;-79
2023/10/15 13:47:14;;;;;;;;;0.00;0.00;;;;;;;;5097088;27;45104;-77
2023/10/15 13:49:39;;;;;;;;;0.00;0.00;;;;;;;;5096904;28;45125;-77
2023/10/15 13:52:04;;;;;;;;;0.00;0.00;;;;;;;;5093197;28;45567;-78
2023/10/15 13:54:30;;;;;;;;;0.00;0.00;;;;;;;;5083819;28;46084;-77
2023/10/15 13:56:57;;;;;;;;;0.00;0.00;;;;;;;;5084882;28;46375;-79
2023/10/15 13:59:24;;;;;;;;;0.00;0.00;;;;;;;;5088874;28;45278;-76
2023/10/15 14:01:49;;;;;;;;;0.00;0.00;;;;;;;;5079848;28;45389;-78
2023/10/15 14:04:14;;;;;;;;;0.00;0.00;;;;;;;;5070723;28;45978;-78
2023/10/15 14:06:39;;;;;;;;;0.00;0.00;;;;;;;;5066879;28;45391;-76
2023/10/15 14:09:10;;;;;;;;;0.00;0.00;;;;;;;;5062296;28;45501;-77
2023/10/15 14:11:37;;;;;;;;;0.00;0.00;;;;;;;;5063848;28;45228;-77
2023/10/15 14:14:02;;;;;;;;;0.00;0.00;;;;;;;;5061523;28;45463;-75
2023/10/15 14:16:27;;;;;;;;;0.00;0.00;;;;;;;;5061955;28;45301;-79
2023/10/15 14:18:53;;;;;;;;;0.00;0.00;;;;;;;;5061909;28;45208;-79
2023/10/15 14:21:19;;;;;;;;;0.00;0.00;;;;;;;;5063701;28;45168;-76
2023/10/15 14:23:45;;;;;;;;;0.00;0.00;;;;;;;;5070837;28;45390;-79
2023/10/15 14:26:12;;;;;;;;;0.00;0.00;;;;;;;;5082769;27;47739;-81
2023/10/15 14:28:37;;;;;;;;;0.00;0.00;;;;;;;;5084817;28;45366;-79
2023/10/15 14:31:02;;;;;;;;;0.00;0.00;;;;;;;;5082035;28;45526;-78
2023/10/15 14:33:27;;;;;;;;;0.00;0.00;;;;;;;;5086014;28;45328;-79
2023/10/15 14:35:54;;;;;;;;;0.00;0.00;;;;;;;;5081266;27;46047;-77
2023/10/15 14:38:19;;;;;;;;;0.00;0.00;;;;;;;;5083800;28;45324;-79
2023/10/15 14:40:44;;;;;;;;;0.00;0.00;;;;;;;;5084959;27;45410;-80
2023/10/15 14:43:09;;;;;;;;;0.00;0.00;;;;;;;;5083438;27;45459;-80
2023/10/15 14:45:36;;;;;;;;;0.00;0.00;;;;;;;;5082882;28;45554;-80
2023/10/15 14:48:03;;;;;;;;;0.00;0.00;;;;;;;;5070415;28;45544;-79
2023/10/15 14:50:28;;;;;;;;;0.00;0.00;;;;;;;;5072699;28;45372;-78
2023/10/15 14:52:53;;;;;;;;;0.00;0.00;;;;;;;;5075109;28;45477;-80
2023/10/15 14:55:18;;;;;;;;;0.00;0.00;;;;;;;;5073363;28;45440;-77
2023/10/15 14:57:44;;;;;;;;;0.00;0.00;;;;;;;;5084802;28;45662;-79